| time (UTC) | temp C | wind direction | speed KPH | gust KPH | rain 1hr cm | rain 24hr cm | rain mn cm | humidity % | barometer mb |
| 20260906191027 | 29 | 45 | 1.6 | 1.6 | 0.00 | 0.00 | 0.00 | 100 | |
| 20260906190027 | 28 | 45 | 1.6 | 1.6 | 0.00 | 0.00 | 0.00 | 100 | |
| 20260906185027 | 28 | 315 | 0.0 | 1.6 | 0.00 | 0.00 | 0.00 | 100 | |
| 20260906184027 | 28 | 90 | 0.0 | 0.0 | 0.00 | 0.00 | 0.00 | 100 | |
| 20260906183027 | 29 | 135 | 0.0 | 0.0 | 0.00 | 0.00 | 0.00 | 100 | |
| 20260906182027 | 30 | 135 | 0.0 | 0.0 | 0.00 | 0.00 | 0.00 | 100 | |
| 20260906181027 | 30 | 180 | 0.0 | 3.2 | 0.00 | 0.00 | 0.00 | 100 | |
| 20260906180027 | 30 | 112 | 0.0 | 0.0 | 0.00 | 0.00 | 0.00 | 100 | |
| 20260906175027 | 30 | 135 | 0.0 | 1.6 | 0.00 | 0.00 | 0.00 | 100 | |
| 20260906174027 | 30 | 135 | 1.6 | 3.2 | 0.00 | 0.00 | 0.00 | 100 | |
| 20260906173027 | 30 | 292 | 1.6 | 3.2 | 0.00 | 0.00 | 0.00 | 100 | |
| 20260906172027 | 30 | 225 | 3.2 | 3.2 | 0.00 | 0.00 | 0.00 | 100 | |
| 20260906171027 | 30 | 202 | 1.6 | 3.2 | 0.00 | 0.00 | 0.00 | 100 | |
| 20260906170027 | 29 | 135 | 1.6 | 1.6 | 0.00 | 0.00 | 0.00 | 100 | |
| 20260906165027 | 30 | 112 | 1.6 | 1.6 | 0.00 | 0.00 | 0.00 | 100 | |
| 20260906164027 | 30 | 90 | 1.6 | 3.2 | 0.00 | 0.00 | 0.00 | 100 | |
| 20260906163027 | 30 | 180 | 0.0 | 1.6 | 0.00 | 0.00 | 0.00 | 100 | |
| 20260906162027 | 30 | 90 | 1.6 | 1.6 | 0.00 | 0.00 | 0.00 | 100 | |
| 20260906161027 | 29 | 180 | 0.0 | 1.6 | 0.00 | 0.00 | 0.00 | 100 | |
| 20260906160027 | 28 | 112 | 1.6 | 3.2 | 0.00 | 0.00 | 0.00 | 100 | |
| 20260906155027 | 27 | 45 | 1.6 | 1.6 | 0.00 | 0.00 | 0.00 | 100 | |
| 20260906154027 | 27 | 112 | 0.0 | 1.6 | 0.00 | 0.00 | 0.00 | 100 | |
| 20260906153027 | 27 | 90 | 0.0 | 1.6 | 0.00 | 0.00 | 0.00 | 100 | |
| 20260906152028 | 25 | 90 | 0.0 | 0.0 | 0.00 | 0.00 | 0.00 | 100 | |
| 20260906151028 | 23 | 112 | 0.0 | 1.6 | 0.00 | 0.00 | 0.00 | 100 | |
| 20260906150028 | 21 | 112 | 0.0 | 0.0 | 0.00 | 0.00 | 0.00 | 100 | |
| 20260906145028 | 20 | 112 | 0.0 | 1.6 | 0.00 | 0.00 | 0.00 | 100 | |
| 20260906144028 | 20 | 90 | 0.0 | 0.0 | 0.00 | 0.00 | 0.00 | 100 | |
| 20260906143028 | 20 | 90 | 1.6 | 4.8 | 0.00 | 0.00 | 0.00 | 100 | |
| 20260906142028 | 20 | 337 | 1.6 | 3.2 | 0.00 | 0.00 | 0.00 | 100 | |
| 20260906141408 | 23 | 90 | 1.6 | 3.2 | 0.00 | 0.00 | 0.00 | 100 | |
| 20260906141028 | 22 | 135 | 0.0 | 0.0 | 0.00 | 0.00 | 0.00 | 100 | |
| 20260906140028 | 23 | 90 | 1.6 | 3.2 | 0.00 | 0.00 | 0.00 | 100 | |
| 20260906135028 | 23 | 202 | 3.2 | 4.8 | 0.00 | 0.00 | 0.00 | 100 | |
| 20260906134028 | 23 | 202 | 3.2 | 4.8 | 0.00 | 0.00 | 0.00 | 100 | |
| 20260906133028 | 23 | 180 | 1.6 | 3.2 | 0.00 | 0.00 | 0.00 | 100 | |
| 20260906132028 | 23 | 180 | 3.2 | 3.2 | 0.00 | 0.00 | 0.00 | 100 | |
| 20260906131028 | 23 | 157 | 1.6 | 1.6 | 0.00 | 0.00 | 0.00 | 100 | |
| 20260906130028 | 24 | 90 | 0.0 | 0.0 | 0.00 | 0.00 | 0.00 | 100 | |
| 20260906125028 | 23 | 45 | 1.6 | 3.2 | 0.00 | 0.00 | 0.00 | 100 | |
| 20260906124028 | 23 | 180 | 6.4 | 8.0 | 0.00 | 0.00 | 0.00 | 100 | |
| 20260906123028 | 22 | 180 | 1.6 | 1.6 | 0.00 | 0.00 | 0.00 | 100 | |
| 20260906122028 | 22 | 135 | 0.0 | 1.6 | 0.00 | 0.00 | 0.00 | 100 | |
| 20260906121028 | 21 | 180 | 1.6 | 1.6 | 0.00 | 0.00 | 0.00 | 100 | |
| 20260906120028 | 21 | 90 | 0.0 | 0.0 | 0.00 | 0.00 | 0.00 | 100 | |
| 20260906115028 | 21 | 112 | 0.0 | 0.0 | 0.00 | 0.00 | 0.00 | 100 | |
| 20260906114028 | 21 | 337 | 1.6 | 1.6 | 0.00 | 0.00 | 0.00 | 100 | |
| 20260906113028 | 21 | 112 | 0.0 | 1.6 | 0.00 | 0.00 | 0.00 | 100 | |
| 20260906112028 | 21 | 90 | 0.0 | 0.0 | 0.00 | 0.00 | 0.00 | 100 | |
| 20260906111028 | 21 | 90 | 0.0 | 0.0 | 0.00 | 0.00 | 0.00 | 100 | |
| 20260906110028 | 21 | 90 | 0.0 | 0.0 | 0.00 | 0.00 | 0.00 | 100 | |
| 20260906105028 | 21 | 90 | 0.0 | 0.0 | 0.00 | 0.00 | 0.00 | 100 | |
| 20260906104028 | 21 | 90 | 0.0 | 0.0 | 0.00 | 0.00 | 0.00 | 100 | |
| 20260906103028 | 22 | 90 | 0.0 | 0.0 | 0.00 | 0.00 | 0.00 | 100 | |
| 20260906102028 | 22 | 90 | 0.0 | 0.0 | 0.00 | 0.00 | 0.00 | 100 | |
| 20260906101028 | 22 | 202 | 1.6 | 3.2 | 0.00 | 0.00 | 0.00 | 100 | |
| 20260906100028 | 22 | 157 | 0.0 | 3.2 | 0.00 | 0.00 | 0.00 | 100 | |
| 20260906095028 | 22 | 135 | 1.6 | 1.6 | 0.00 | 0.00 | 0.00 | 100 | |
| 20260906094028 | 22 | 157 | 1.6 | 1.6 | 0.00 | 0.00 | 0.00 | 100 | |
| 20260906093028 | 23 | 90 | 0.0 | 1.6 | 0.00 | 0.00 | 0.00 | 100 | |
| 20260906092028 | 23 | 180 | 1.6 | 4.8 | 0.00 | 0.00 | 0.00 | 100 | |
| 20260906091028 | 23 | 157 | 1.6 | 6.4 | 0.00 | 0.00 | 0.00 | 100 | |
| 20260906090028 | 23 | 202 | 3.2 | 6.4 | 0.00 | 0.00 | 0.00 | 100 | |
| 20260906085028 | 23 | 135 | 0.0 | 1.6 | 0.00 | 0.00 | 0.00 | 100 | |
| 20260906084028 | 23 | 135 | 0.0 | 1.6 | 0.00 | 0.00 | 0.00 | 100 | |
| 20260906083028 | 23 | 180 | 0.0 | 0.0 | 0.00 | 0.00 | 0.00 | 100 | |
| 20260906082028 | 23 | 225 | 1.6 | 1.6 | 0.00 | 0.00 | 0.00 | 100 | |
| 20260906081028 | 23 | 225 | 1.6 | 1.6 | 0.00 | 0.00 | 0.00 | 100 | |
| 20260906080029 | 23 | 225 | 3.2 | 3.2 | 0.00 | 0.00 | 0.00 | 100 | |
| 20260906075028 | 23 | 135 | 0.0 | 1.6 | 0.00 | 0.00 | 0.00 | 100 | |
| 20260906074028 | 23 | 90 | 0.0 | 4.8 | 0.00 | 0.00 | 0.00 | 100 | |
| 20260906073028 | 23 | 180 | 1.6 | 1.6 | 0.00 | 0.00 | 0.00 | 100 | |
| 20260906072028 | 23 | 180 | 0.0 | 0.0 | 0.00 | 0.00 | 0.00 | 100 | |
| 20260906071028 | 23 | 247 | 1.6 | 4.8 | 0.00 | 0.00 | 0.00 | 100 | |
| 20260906070028 | 23 | 180 | 1.6 | 3.2 | 0.00 | 0.00 | 0.00 | 100 | |
| 20260906065028 | 23 | 225 | 3.2 | 4.8 | 0.00 | 0.00 | 0.00 | 100 | |
| 20260906064029 | 23 | 337 | 1.6 | 1.6 | 0.00 | 0.00 | 0.00 | 100 | |
| 20260906063028 | 23 | 135 | 1.6 | 3.2 | 0.00 | 0.00 | 0.00 | 100 | |
| 20260906062028 | 23 | 315 | 3.2 | 3.2 | 0.00 | 0.00 | 0.00 | 100 | |
| 20260906061028 | 23 | 270 | 1.6 | 3.2 | 0.00 | 0.00 | 0.00 | 100 | |
| 20260906060028 | 22 | 315 | 3.2 | 3.2 | 0.00 | 0.00 | 0.00 | 100 | |
| 20260906055028 | 23 | 67 | 0.0 | 1.6 | 0.00 | 0.00 | 0.00 | 100 | |
| 20260906054028 | 23 | 315 | 1.6 | 1.6 | 0.00 | 0.00 | 0.00 | 100 | |
| 20260906053028 | 22 | 135 | 0.0 | 3.2 | 0.00 | 0.00 | 0.00 | 100 | |
| 20260906052028 | 22 | 90 | 0.0 | 0.0 | 0.00 | 0.00 | 0.00 | 100 | |
| 20260906051028 | 22 | 90 | 0.0 | 1.6 | 0.00 | 0.00 | 0.00 | 100 | |
| 20260906050028 | 23 | 90 | 0.0 | 0.0 | 0.00 | 0.00 | 0.00 | 100 | |
| 20260906045028 | 23 | 90 | 0.0 | 1.6 | 0.00 | 0.00 | 0.00 | 100 | |
| 20260906044028 | 23 | 90 | 0.0 | 0.0 | 0.00 | 0.00 | 0.00 | 100 | |
| 20260906043028 | 23 | 90 | 0.0 | 0.0 | 0.00 | 0.00 | 0.00 | 100 | |
| 20260906042028 | 23 | 90 | 0.0 | 0.0 | 0.00 | 0.00 | 0.00 | 100 | |
| 20260906041028 | 24 | 90 | 1.6 | 3.2 | 0.00 | 0.00 | 0.00 | 100 | |
| 20260906040028 | 24 | 90 | 0.0 | 0.0 | 0.00 | 0.00 | 0.00 | 100 | |
| 20260906035028 | 25 | 45 | 0.0 | 0.0 | 0.00 | 0.00 | 0.00 | 100 | |
| 20260906034028 | 25 | 135 | 0.0 | 0.0 | 0.00 | 0.00 | 0.00 | 100 | |
| 20260906033028 | 25 | 22 | 1.6 | 1.6 | 0.00 | 0.00 | 0.00 | 100 | |
| 20260906032028 | 26 | 90 | 0.0 | 1.6 | 0.00 | 0.00 | 0.00 | 100 | |
| 20260906031028 | 26 | 45 | 0.0 | 0.0 | 0.00 | 0.00 | 0.00 | 100 | |
| 20260906030028 | 26 | 202 | 1.6 | 3.2 | 0.00 | 0.00 | 0.00 | 100 | |
| 20260906025028 | 26 | 180 | 3.2 | 3.2 | 0.00 | 0.00 | 0.00 | 100 | |
| 20260906024029 | 26 | 202 | 1.6 | 3.2 | 0.00 | 0.00 | 0.00 | 100 | |
| 20260906023029 | 26 | 180 | 0.0 | 0.0 | 0.00 | 0.00 | 0.00 | 100 | |
| 20260906022029 | 27 | 337 | 0.0 | 0.0 | 0.00 | 0.00 | 0.00 | 100 | |
| 20260906021029 | 27 | 90 | 0.0 | 0.0 | 0.00 | 0.00 | 0.00 | 100 | |
| 20260906020029 | 27 | 225 | 1.6 | 3.2 | 0.00 | 0.00 | 0.00 | 100 | |
| 20260906015029 | 27 | 90 | 0.0 | 0.0 | 0.00 | 0.00 | 0.00 | 100 | |
| 20260906014029 | 27 | 315 | 1.6 | 1.6 | 0.00 | 0.00 | 0.00 | 100 | |
| 20260906012029 | 28 | 202 | 1.6 | 3.2 | 0.00 | 0.00 | 0.00 | 100 | |
| 20260906011029 | 29 | 180 | 1.6 | 3.2 | 0.00 | 0.00 | 0.00 | 100 | |
| 20260906010029 | 30 | 180 | 1.6 | 1.6 | 0.00 | 0.00 | 0.00 | 100 | |
| 20260906005029 | 30 | 225 | 1.6 | 4.8 | 0.00 | 0.00 | 0.00 | 100 | |
| 20260906004029 | 30 | 180 | 3.2 | 4.8 | 0.00 | 0.00 | 0.00 | 100 | |
| 20260906003029 | 30 | 225 | 3.2 | 6.4 | 0.00 | 0.00 | 0.00 | 100 | |
| 20260906002029 | 30 | 202 | 6.4 | 8.0 | 0.00 | 0.00 | 0.00 | 100 | |
| 20260906001029 | 31 | 225 | 6.4 | 6.4 | 0.00 | 0.00 | 0.00 | 100 | |
| 20260906000029 | 31 | 225 | 3.2 | 6.4 | 0.00 | 0.00 | 0.00 | 100 | |
| 20260905235029 | 31 | 135 | 1.6 | 3.2 | 0.00 | 0.00 | 0.00 | 100 | |
| 20260905234029 | 31 | 135 | 3.2 | 6.4 | 0.00 | 0.00 | 0.00 | 100 | |
| 20260905233029 | 31 | 180 | 3.2 | 6.4 | 0.00 | 0.00 | 0.00 | 100 | |
| 20260905232029 | 31 | 180 | 8.0 | 9.7 | 0.00 | 0.00 | 0.00 | 100 | |
| 20260905231029 | 32 | 180 | 6.4 | 11.3 | 0.00 | 0.00 | 0.00 | 100 | |
| 20260905230029 | 32 | 180 | 6.4 | 14.5 | 0.00 | 0.00 | 0.00 | 100 | |
| 20260905225029 | 32 | 180 | 4.8 | 6.4 | 0.00 | 0.00 | 0.00 | 100 | |
| 20260905224029 | 32 | 225 | 11.3 | 11.3 | 0.00 | 0.00 | 0.00 | 100 | |
| 20260905223029 | 32 | 180 | 6.4 | 6.4 | 0.00 | 0.00 | 0.00 | 100 | |
| 20260905222030 | 31 | 202 | 8.0 | 8.0 | 0.00 | 0.00 | 0.00 | 100 | |
| 20260905221029 | 31 | 202 | 8.0 | 12.9 | 0.00 | 0.00 | 0.00 | 100 | |
| 20260905220029 | 31 | 180 | 6.4 | 8.0 | 0.00 | 0.00 | 0.00 | 100 | |
| 20260905215030 | 31 | 337 | 3.2 | 8.0 | 0.00 | 0.00 | 0.00 | 100 | |
| 20260905214029 | 31 | 157 | 4.8 | 11.3 | 0.00 | 0.00 | 0.00 | 100 | |
| 20260905213030 | 31 | 135 | 1.6 | 6.4 | 0.00 | 0.00 | 0.00 | 100 | |
| 20260905212029 | 31 | 225 | 8.0 | 11.3 | 0.00 | 0.00 | 0.00 | 100 | |
| 20260905211029 | 32 | 225 | 6.4 | 9.7 | 0.00 | 0.00 | 0.00 | 100 | |
| 20260905210030 | 34 | 292 | 8.0 | 8.0 | 0.00 | 0.00 | 0.00 | 100 | |
| 20260905205030 | 36 | 225 | 4.8 | 6.4 | 0.00 | 0.00 | 0.00 | 100 | |
| 20260905204029 | 36 | 270 | 6.4 | 12.9 | 0.00 | 0.00 | 0.00 | 100 | |
| 20260905203029 | 36 | 0 | 3.2 | 6.4 | 0.00 | 0.00 | 0.00 | 100 | |
| 20260905202029 | 36 | 292 | 3.2 | 11.3 | 0.00 | 0.00 | 0.00 | 100 | |
| 20260905201029 | 36 | 292 | 6.4 | 6.4 | 0.00 | 0.00 | 0.00 | 100 | |
| 20260905200029 | 36 | 315 | 8.0 | 9.7 | 0.00 | 0.00 | 0.00 | 100 | |
| 20260905195029 | 36 | 315 | 3.2 | 8.0 | 0.00 | 0.00 | 0.00 | 100 | |
| 20260905194029 | 36 | 315 | 6.4 | 6.4 | 0.00 | 0.00 | 0.00 | 100 | |
| 20260905193029 | 37 | 337 | 3.2 | 8.0 | 0.00 | 0.00 | 0.00 | 100 | |
| 20260905192030 | 37 | 225 | 3.2 | 6.4 | 0.00 | 0.00 | 0.00 | 100 |